sensor_id;sensor_type;location;lat;lon;timestamp;P1;durP1;ratioP1;P2;durP2;ratioP2
71856;SDS011;63344;46.980;28.882;2023-04-25T00:00:08;4.03;;;2.67;;
71856;SDS011;63344;46.980;28.882;2023-04-25T00:02:56;8.57;;;3.70;;
71856;SDS011;63344;46.980;28.882;2023-04-25T00:05:28;6.88;;;3.20;;
71856;SDS011;63344;46.980;28.882;2023-04-25T00:07:57;6.28;;;3.72;;
71856;SDS011;63344;46.980;28.882;2023-04-25T00:10:25;5.43;;;3.10;;
71856;SDS011;63344;46.980;28.882;2023-04-25T00:12:52;8.48;;;3.20;;
71856;SDS011;63344;46.980;28.882;2023-04-25T00:15:20;6.72;;;3.47;;
71856;SDS011;63344;46.980;28.882;2023-04-25T00:17:47;7.25;;;3.50;;
71856;SDS011;63344;46.980;28.882;2023-04-25T00:20:15;9.90;;;3.75;;
71856;SDS011;63344;46.980;28.882;2023-04-25T00:22:42;8.93;;;4.07;;
71856;SDS011;63344;46.980;28.882;2023-04-25T00:25:09;6.93;;;3.55;;
71856;SDS011;63344;46.980;28.882;2023-04-25T00:27:36;7.32;;;3.80;;
71856;SDS011;63344;46.980;28.882;2023-04-25T00:30:06;2.85;;;2.05;;
71856;SDS011;63344;46.980;28.882;2023-04-25T00:32:33;7.93;;;3.90;;
71856;SDS011;63344;46.980;28.882;2023-04-25T00:35:01;2.85;;;1.70;;
71856;SDS011;63344;46.980;28.882;2023-04-25T00:37:28;6.10;;;3.53;;
71856;SDS011;63344;46.980;28.882;2023-04-25T00:39:57;6.50;;;3.30;;
71856;SDS011;63344;46.980;28.882;2023-04-25T00:44:52;5.00;;;2.97;;
71856;SDS011;63344;46.980;28.882;2023-04-25T00:47:19;4.05;;;2.63;;
71856;SDS011;63344;46.980;28.882;2023-04-25T00:49:47;6.22;;;3.35;;
71856;SDS011;63344;46.980;28.882;2023-04-25T00:52:14;9.13;;;3.13;;
71856;SDS011;63344;46.980;28.882;2023-04-25T00:54:42;6.07;;;2.58;;
71856;SDS011;63344;46.980;28.882;2023-04-25T00:57:09;17.25;;;2.83;;
71856;SDS011;63344;46.980;28.882;2023-04-25T00:59:37;4.60;;;2.88;;
71856;SDS011;63344;46.980;28.882;2023-04-25T01:02:05;5.93;;;3.33;;
71856;SDS011;63344;46.980;28.882;2023-04-25T01:04:32;3.60;;;1.92;;
71856;SDS011;63344;46.980;28.882;2023-04-25T01:06:59;6.45;;;2.65;;
71856;SDS011;63344;46.980;28.882;2023-04-25T01:09:27;8.00;;;3.25;;
71856;SDS011;63344;46.980;28.882;2023-04-25T01:11:54;12.02;;;3.38;;
71856;SDS011;63344;46.980;28.882;2023-04-25T01:14:21;6.38;;;3.78;;
71856;SDS011;63344;46.980;28.882;2023-04-25T01:16:48;10.48;;;4.28;;
71856;SDS011;63344;46.980;28.882;2023-04-25T01:19:16;6.00;;;3.47;;
71856;SDS011;63344;46.980;28.882;2023-04-25T01:21:45;9.57;;;4.13;;
71856;SDS011;63344;46.980;28.882;2023-04-25T01:24:13;9.80;;;4.68;;
71856;SDS011;63344;46.980;28.882;2023-04-25T01:26:40;8.68;;;3.83;;
71856;SDS011;63344;46.980;28.882;2023-04-25T01:29:12;9.07;;;3.40;;
71856;SDS011;63344;46.980;28.882;2023-04-25T01:31:39;6.82;;;4.03;;
71856;SDS011;63344;46.980;28.882;2023-04-25T01:34:07;11.88;;;4.20;;
71856;SDS011;63344;46.980;28.882;2023-04-25T01:36:34;7.07;;;4.43;;
71856;SDS011;63344;46.980;28.882;2023-04-25T01:39:02;7.03;;;4.13;;
71856;SDS011;63344;46.980;28.882;2023-04-25T01:41:29;7.50;;;4.40;;
71856;SDS011;63344;46.980;28.882;2023-04-25T01:43:57;7.57;;;4.28;;
71856;SDS011;63344;46.980;28.882;2023-04-25T01:46:24;8.07;;;4.13;;
71856;SDS011;63344;46.980;28.882;2023-04-25T01:48:52;6.63;;;3.90;;
71856;SDS011;63344;46.980;28.882;2023-04-25T01:51:19;7.97;;;4.20;;
71856;SDS011;63344;46.980;28.882;2023-04-25T01:53:46;8.55;;;4.43;;
71856;SDS011;63344;46.980;28.882;2023-04-25T01:56:14;8.93;;;3.88;;
71856;SDS011;63344;46.980;28.882;2023-04-25T01:58:43;9.48;;;4.45;;
71856;SDS011;63344;46.980;28.882;2023-04-25T02:01:11;10.30;;;4.60;;
71856;SDS011;63344;46.980;28.882;2023-04-25T02:03:38;10.35;;;4.93;;
71856;SDS011;63344;46.980;28.882;2023-04-25T02:06:06;8.55;;;4.38;;
71856;SDS011;63344;46.980;28.882;2023-04-25T02:08:34;9.23;;;4.63;;
71856;SDS011;63344;46.980;28.882;2023-04-25T02:11:01;10.73;;;5.55;;
71856;SDS011;63344;46.980;28.882;2023-04-25T02:13:30;12.10;;;4.95;;
71856;SDS011;63344;46.980;28.882;2023-04-25T02:15:57;11.40;;;4.30;;
71856;SDS011;63344;46.980;28.882;2023-04-25T02:18:26;13.82;;;4.32;;
71856;SDS011;63344;46.980;28.882;2023-04-25T02:20:54;11.70;;;4.65;;
71856;SDS011;63344;46.980;28.882;2023-04-25T02:23:21;13.13;;;5.00;;
71856;SDS011;63344;46.980;28.882;2023-04-25T02:25:48;11.02;;;4.90;;
71856;SDS011;63344;46.980;28.882;2023-04-25T02:30:44;9.02;;;4.10;;
71856;SDS011;63344;46.980;28.882;2023-04-25T02:33:13;11.35;;;5.03;;
71856;SDS011;63344;46.980;28.882;2023-04-25T02:35:40;10.75;;;5.13;;
71856;SDS011;63344;46.980;28.882;2023-04-25T02:38:08;8.55;;;4.38;;
71856;SDS011;63344;46.980;28.882;2023-04-25T02:40:35;8.45;;;4.65;;
71856;SDS011;63344;46.980;28.882;2023-04-25T02:43:02;9.18;;;5.03;;
71856;SDS011;63344;46.980;28.882;2023-04-25T02:45:29;13.38;;;5.30;;
71856;SDS011;63344;46.980;28.882;2023-04-25T02:47:57;12.40;;;5.28;;
71856;SDS011;63344;46.980;28.882;2023-04-25T02:50:24;12.48;;;5.40;;
71856;SDS011;63344;46.980;28.882;2023-04-25T02:52:57;10.77;;;5.15;;
71856;SDS011;63344;46.980;28.882;2023-04-25T02:55:25;13.23;;;6.10;;
71856;SDS011;63344;46.980;28.882;2023-04-25T02:57:54;14.63;;;5.80;;
71856;SDS011;63344;46.980;28.882;2023-04-25T03:00:23;10.27;;;5.40;;
71856;SDS011;63344;46.980;28.882;2023-04-25T03:02:50;11.23;;;5.90;;
71856;SDS011;63344;46.980;28.882;2023-04-25T03:05:19;10.95;;;6.53;;
71856;SDS011;63344;46.980;28.882;2023-04-25T03:07:47;20.25;;;6.65;;
71856;SDS011;63344;46.980;28.882;2023-04-25T03:10:14;21.02;;;7.45;;
71856;SDS011;63344;46.980;28.882;2023-04-25T03:12:41;13.07;;;5.68;;
71856;SDS011;63344;46.980;28.882;2023-04-25T03:15:08;13.55;;;5.65;;
71856;SDS011;63344;46.980;28.882;2023-04-25T03:17:36;10.07;;;5.28;;
71856;SDS011;63344;46.980;28.882;2023-04-25T03:20:04;11.30;;;5.28;;
71856;SDS011;63344;46.980;28.882;2023-04-25T03:22:32;14.52;;;5.25;;
71856;SDS011;63344;46.980;28.882;2023-04-25T03:24:59;8.38;;;4.60;;
71856;SDS011;63344;46.980;28.882;2023-04-25T03:27:26;9.88;;;4.03;;
71856;SDS011;63344;46.980;28.882;2023-04-25T03:29:53;6.72;;;4.22;;
71856;SDS011;63344;46.980;28.882;2023-04-25T03:32:21;8.27;;;3.58;;
71856;SDS011;63344;46.980;28.882;2023-04-25T03:34:48;9.73;;;4.70;;
71856;SDS011;63344;46.980;28.882;2023-04-25T03:37:16;11.02;;;5.18;;
71856;SDS011;63344;46.980;28.882;2023-04-25T03:39:44;7.85;;;4.85;;
71856;SDS011;63344;46.980;28.882;2023-04-25T03:42:11;11.88;;;5.90;;
71856;SDS011;63344;46.980;28.882;2023-04-25T03:44:40;7.55;;;5.13;;
71856;SDS011;63344;46.980;28.882;2023-04-25T03:47:07;10.68;;;5.07;;
71856;SDS011;63344;46.980;28.882;2023-04-25T03:49:34;8.20;;;4.13;;
71856;SDS011;63344;46.980;28.882;2023-04-25T03:52:04;23.90;;;6.47;;
71856;SDS011;63344;46.980;28.882;2023-04-25T03:54:31;8.55;;;4.45;;
71856;SDS011;63344;46.980;28.882;2023-04-25T03:56:59;8.05;;;4.90;;
71856;SDS011;63344;46.980;28.882;2023-04-25T03:59:26;10.05;;;4.88;;
71856;SDS011;63344;46.980;28.882;2023-04-25T04:01:54;7.50;;;4.70;;
71856;SDS011;63344;46.980;28.882;2023-04-25T04:04:22;9.00;;;4.63;;
71856;SDS011;63344;46.980;28.882;2023-04-25T04:06:50;8.55;;;5.20;;
71856;SDS011;63344;46.980;28.882;2023-04-25T04:09:20;12.00;;;5.10;;
71856;SDS011;63344;46.980;28.882;2023-04-25T04:11:47;8.80;;;5.15;;
71856;SDS011;63344;46.980;28.882;2023-04-25T04:14:15;12.85;;;5.35;;
71856;SDS011;63344;46.980;28.882;2023-04-25T04:16:43;10.15;;;4.90;;
71856;SDS011;63344;46.980;28.882;2023-04-25T04:19:10;10.75;;;5.00;;
71856;SDS011;63344;46.980;28.882;2023-04-25T04:21:39;9.52;;;5.40;;
71856;SDS011;63344;46.980;28.882;2023-04-25T04:24:06;7.90;;;4.63;;
71856;SDS011;63344;46.980;28.882;2023-04-25T04:26:36;8.30;;;3.63;;
71856;SDS011;63344;46.980;28.882;2023-04-25T04:29:03;5.68;;;3.08;;
71856;SDS011;63344;46.980;28.882;2023-04-25T04:31:33;6.10;;;3.85;;
71856;SDS011;63344;46.980;28.882;2023-04-25T04:34:25;7.28;;;4.28;;
71856;SDS011;63344;46.980;28.882;2023-04-25T04:36:58;9.25;;;4.47;;
71856;SDS011;63344;46.980;28.882;2023-04-25T04:39:26;8.23;;;3.97;;
71856;SDS011;63344;46.980;28.882;2023-04-25T04:44:48;10.45;;;4.32;;
71856;SDS011;63344;46.980;28.882;2023-04-25T04:47:17;9.85;;;4.05;;
71856;SDS011;63344;46.980;28.882;2023-04-25T04:49:47;11.93;;;4.70;;
71856;SDS011;63344;46.980;28.882;2023-04-25T04:52:32;9.30;;;3.63;;
71856;SDS011;63344;46.980;28.882;2023-04-25T04:55:14;10.38;;;3.65;;
71856;SDS011;63344;46.980;28.882;2023-04-25T04:57:42;11.85;;;4.55;;
71856;SDS011;63344;46.980;28.882;2023-04-25T05:00:09;8.60;;;4.20;;
71856;SDS011;63344;46.980;28.882;2023-04-25T05:02:38;5.60;;;3.30;;
71856;SDS011;63344;46.980;28.882;2023-04-25T05:05:06;9.05;;;4.22;;
71856;SDS011;63344;46.980;28.882;2023-04-25T05:07:34;9.43;;;4.00;;
71856;SDS011;63344;46.980;28.882;2023-04-25T05:10:03;6.60;;;3.35;;
71856;SDS011;63344;46.980;28.882;2023-04-25T05:12:31;10.15;;;3.85;;
71856;SDS011;63344;46.980;28.882;2023-04-25T05:14:59;10.70;;;4.22;;
71856;SDS011;63344;46.980;28.882;2023-04-25T05:17:27;9.65;;;4.90;;
71856;SDS011;63344;46.980;28.882;2023-04-25T05:23:02;7.00;;;4.15;;
71856;SDS011;63344;46.980;28.882;2023-04-25T05:25:30;6.70;;;4.25;;
71856;SDS011;63344;46.980;28.882;2023-04-25T05:27:58;8.30;;;3.72;;
71856;SDS011;63344;46.980;28.882;2023-04-25T05:30:25;10.50;;;3.63;;
71856;SDS011;63344;46.980;28.882;2023-04-25T05:32:53;6.53;;;3.42;;
71856;SDS011;63344;46.980;28.882;2023-04-25T05:35:20;6.72;;;3.55;;
71856;SDS011;63344;46.980;28.882;2023-04-25T05:37:48;7.95;;;3.80;;
71856;SDS011;63344;46.980;28.882;2023-04-25T05:40:15;7.70;;;3.67;;
71856;SDS011;63344;46.980;28.882;2023-04-25T05:42:45;9.55;;;4.00;;
71856;SDS011;63344;46.980;28.882;2023-04-25T05:45:13;6.57;;;3.90;;
71856;SDS011;63344;46.980;28.882;2023-04-25T05:47:40;7.30;;;3.53;;
71856;SDS011;63344;46.980;28.882;2023-04-25T05:50:08;5.95;;;2.95;;
71856;SDS011;63344;46.980;28.882;2023-04-25T05:52:36;5.72;;;3.72;;
71856;SDS011;63344;46.980;28.882;2023-04-25T05:55:03;6.88;;;3.67;;
71856;SDS011;63344;46.980;28.882;2023-04-25T05:57:31;9.27;;;3.70;;
71856;SDS011;63344;46.980;28.882;2023-04-25T05:59:58;8.27;;;2.95;;
71856;SDS011;63344;46.980;28.882;2023-04-25T06:02:26;5.63;;;3.10;;
71856;SDS011;63344;46.980;28.882;2023-04-25T06:04:56;3.63;;;2.05;;
71856;SDS011;63344;46.980;28.882;2023-04-25T06:07:24;3.42;;;2.38;;
71856;SDS011;63344;46.980;28.882;2023-04-25T06:09:51;4.68;;;1.63;;
71856;SDS011;63344;46.980;28.882;2023-04-25T06:12:20;4.35;;;3.17;;
71856;SDS011;63344;46.980;28.882;2023-04-25T06:14:47;6.43;;;2.05;;
71856;SDS011;63344;46.980;28.882;2023-04-25T06:17:15;5.95;;;2.70;;
71856;SDS011;63344;46.980;28.882;2023-04-25T06:19:43;4.35;;;2.53;;
71856;SDS011;63344;46.980;28.882;2023-04-25T06:22:10;3.65;;;2.05;;
71856;SDS011;63344;46.980;28.882;2023-04-25T06:24:37;3.88;;;2.10;;
71856;SDS011;63344;46.980;28.882;2023-04-25T06:27:08;4.38;;;2.30;;
71856;SDS011;63344;46.980;28.882;2023-04-25T06:29:36;4.43;;;1.88;;
71856;SDS011;63344;46.980;28.882;2023-04-25T06:32:05;4.68;;;1.77;;
71856;SDS011;63344;46.980;28.882;2023-04-25T06:34:44;7.15;;;2.60;;
71856;SDS011;63344;46.980;28.882;2023-04-25T06:37:21;4.97;;;2.38;;
71856;SDS011;63344;46.980;28.882;2023-04-25T06:39:50;3.90;;;1.95;;
71856;SDS011;63344;46.980;28.882;2023-04-25T06:42:17;4.47;;;2.15;;
71856;SDS011;63344;46.980;28.882;2023-04-25T06:44:44;7.40;;;3.10;;
71856;SDS011;63344;46.980;28.882;2023-04-25T06:47:17;8.82;;;2.08;;
71856;SDS011;63344;46.980;28.882;2023-04-25T06:49:45;6.00;;;2.78;;
71856;SDS011;63344;46.980;28.882;2023-04-25T06:52:12;5.32;;;2.33;;
71856;SDS011;63344;46.980;28.882;2023-04-25T06:54:39;3.17;;;2.05;;
71856;SDS011;63344;46.980;28.882;2023-04-25T06:57:07;5.22;;;2.00;;
71856;SDS011;63344;46.980;28.882;2023-04-25T06:59:35;3.60;;;2.17;;
71856;SDS011;63344;46.980;28.882;2023-04-25T07:02:02;3.45;;;2.05;;
71856;SDS011;63344;46.980;28.882;2023-04-25T07:05:05;3.35;;;1.48;;
71856;SDS011;63344;46.980;28.882;2023-04-25T07:07:32;4.22;;;2.45;;
71856;SDS011;63344;46.980;28.882;2023-04-25T07:10:00;2.63;;;1.55;;
71856;SDS011;63344;46.980;28.882;2023-04-25T07:12:27;7.35;;;2.05;;
71856;SDS011;63344;46.980;28.882;2023-04-25T07:14:56;3.45;;;1.50;;
71856;SDS011;63344;46.980;28.882;2023-04-25T07:17:23;3.35;;;2.25;;
71856;SDS011;63344;46.980;28.882;2023-04-25T07:19:50;3.53;;;1.58;;
71856;SDS011;63344;46.980;28.882;2023-04-25T07:22:18;4.85;;;2.03;;
71856;SDS011;63344;46.980;28.882;2023-04-25T07:24:47;7.47;;;3.38;;
71856;SDS011;63344;46.980;28.882;2023-04-25T07:27:15;6.63;;;2.15;;
71856;SDS011;63344;46.980;28.882;2023-04-25T07:29:42;6.32;;;2.40;;
71856;SDS011;63344;46.980;28.882;2023-04-25T07:32:25;5.03;;;2.20;;
71856;SDS011;63344;46.980;28.882;2023-04-25T07:34:53;5.50;;;2.20;;
71856;SDS011;63344;46.980;28.882;2023-04-25T07:37:20;5.75;;;2.30;;
71856;SDS011;63344;46.980;28.882;2023-04-25T07:39:48;4.40;;;2.50;;
71856;SDS011;63344;46.980;28.882;2023-04-25T07:42:15;3.67;;;2.00;;
71856;SDS011;63344;46.980;28.882;2023-04-25T07:44:42;2.78;;;1.85;;
71856;SDS011;63344;46.980;28.882;2023-04-25T07:47:10;6.28;;;1.75;;
71856;SDS011;63344;46.980;28.882;2023-04-25T07:49:43;4.80;;;1.60;;
71856;SDS011;63344;46.980;28.882;2023-04-25T07:52:17;3.30;;;1.55;;
71856;SDS011;63344;46.980;28.882;2023-04-25T07:54:47;7.72;;;1.98;;
71856;SDS011;63344;46.980;28.882;2023-04-25T07:57:15;7.75;;;2.10;;
71856;SDS011;63344;46.980;28.882;2023-04-25T07:59:43;4.05;;;1.92;;
71856;SDS011;63344;46.980;28.882;2023-04-25T08:02:11;4.38;;;1.83;;
71856;SDS011;63344;46.980;28.882;2023-04-25T08:04:49;3.65;;;1.50;;
71856;SDS011;63344;46.980;28.882;2023-04-25T08:07:29;6.72;;;2.10;;
71856;SDS011;63344;46.980;28.882;2023-04-25T08:10:10;7.15;;;2.63;;
71856;SDS011;63344;46.980;28.882;2023-04-25T08:12:37;3.85;;;1.80;;
71856;SDS011;63344;46.980;28.882;2023-04-25T08:15:05;5.07;;;2.63;;
71856;SDS011;63344;46.980;28.882;2023-04-25T08:17:33;2.20;;;1.48;;
71856;SDS011;63344;46.980;28.882;2023-04-25T08:20:01;3.92;;;1.40;;
71856;SDS011;63344;46.980;28.882;2023-04-25T08:22:32;5.20;;;2.05;;
71856;SDS011;63344;46.980;28.882;2023-04-25T08:25:01;3.13;;;2.00;;
71856;SDS011;63344;46.980;28.882;2023-04-25T08:27:45;4.95;;;2.50;;
71856;SDS011;63344;46.980;28.882;2023-04-25T08:35:29;4.53;;;2.13;;
71856;SDS011;63344;46.980;28.882;2023-04-25T08:37:56;3.38;;;2.00;;
71856;SDS011;63344;46.980;28.882;2023-04-25T08:40:26;7.15;;;2.53;;
71856;SDS011;63344;46.980;28.882;2023-04-25T08:42:57;2.88;;;1.80;;
71856;SDS011;63344;46.980;28.882;2023-04-25T08:45:26;4.70;;;2.42;;
71856;SDS011;63344;46.980;28.882;2023-04-25T08:47:55;4.78;;;1.92;;
71856;SDS011;63344;46.980;28.882;2023-04-25T08:50:24;8.02;;;2.97;;
71856;SDS011;63344;46.980;28.882;2023-04-25T08:55:21;7.28;;;1.98;;
71856;SDS011;63344;46.980;28.882;2023-04-25T08:57:48;6.70;;;2.10;;
71856;SDS011;63344;46.980;28.882;2023-04-25T09:00:17;1.75;;;1.23;;
71856;SDS011;63344;46.980;28.882;2023-04-25T09:02:45;3.53;;;1.63;;
71856;SDS011;63344;46.980;28.882;2023-04-25T09:05:14;5.65;;;1.95;;
71856;SDS011;63344;46.980;28.882;2023-04-25T09:07:41;2.30;;;1.45;;
71856;SDS011;63344;46.980;28.882;2023-04-25T09:10:11;10.23;;;2.40;;
71856;SDS011;63344;46.980;28.882;2023-04-25T09:12:38;5.88;;;1.95;;
71856;SDS011;63344;46.980;28.882;2023-04-25T09:15:46;3.30;;;1.52;;
71856;SDS011;63344;46.980;28.882;2023-04-25T09:18:28;3.25;;;2.28;;
71856;SDS011;63344;46.980;28.882;2023-04-25T09:21:09;4.03;;;1.85;;
71856;SDS011;63344;46.980;28.882;2023-04-25T09:26:10;4.55;;;1.70;;
71856;SDS011;63344;46.980;28.882;2023-04-25T09:28:42;3.42;;;2.00;;
71856;SDS011;63344;46.980;28.882;2023-04-25T09:31:26;5.05;;;1.63;;
71856;SDS011;63344;46.980;28.882;2023-04-25T09:34:00;5.63;;;1.70;;
71856;SDS011;63344;46.980;28.882;2023-04-25T09:36:30;6.60;;;2.42;;
71856;SDS011;63344;46.980;28.882;2023-04-25T09:38:57;3.55;;;1.65;;
71856;SDS011;63344;46.980;28.882;2023-04-25T09:41:26;4.45;;;1.92;;
71856;SDS011;63344;46.980;28.882;2023-04-25T09:43:56;5.38;;;1.85;;
71856;SDS011;63344;46.980;28.882;2023-04-25T09:46:25;2.92;;;1.88;;
71856;SDS011;63344;46.980;28.882;2023-04-25T09:49:05;3.28;;;1.75;;
71856;SDS011;63344;46.980;28.882;2023-04-25T09:51:33;5.55;;;1.83;;
71856;SDS011;63344;46.980;28.882;2023-04-25T09:54:00;5.55;;;2.17;;
71856;SDS011;63344;46.980;28.882;2023-04-25T09:56:27;3.65;;;1.63;;
71856;SDS011;63344;46.980;28.882;2023-04-25T09:58:59;5.72;;;2.10;;
71856;SDS011;63344;46.980;28.882;2023-04-25T10:01:30;5.55;;;1.80;;
71856;SDS011;63344;46.980;28.882;2023-04-25T10:03:58;3.72;;;1.75;;
71856;SDS011;63344;46.980;28.882;2023-04-25T10:06:27;5.93;;;2.00;;
71856;SDS011;63344;46.980;28.882;2023-04-25T10:08:56;4.45;;;1.90;;
71856;SDS011;63344;46.980;28.882;2023-04-25T10:11:24;5.47;;;2.00;;
71856;SDS011;63344;46.980;28.882;2023-04-25T10:13:53;19.10;;;1.60;;
71856;SDS011;63344;46.980;28.882;2023-04-25T10:16:20;6.03;;;2.72;;
71856;SDS011;63344;46.980;28.882;2023-04-25T10:18:48;4.25;;;2.08;;
71856;SDS011;63344;46.980;28.882;2023-04-25T10:21:17;4.38;;;1.58;;
71856;SDS011;63344;46.980;28.882;2023-04-25T10:24:16;5.20;;;1.90;;
71856;SDS011;63344;46.980;28.882;2023-04-25T10:26:44;4.03;;;1.63;;
71856;SDS011;63344;46.980;28.882;2023-04-25T10:29:12;5.53;;;2.00;;
71856;SDS011;63344;46.980;28.882;2023-04-25T10:31:45;6.05;;;2.00;;
71856;SDS011;63344;46.980;28.882;2023-04-25T10:34:16;4.75;;;1.92;;
71856;SDS011;63344;46.980;28.882;2023-04-25T10:36:50;6.45;;;1.70;;
71856;SDS011;63344;46.980;28.882;2023-04-25T10:39:26;7.35;;;2.03;;
71856;SDS011;63344;46.980;28.882;2023-04-25T10:41:57;4.82;;;2.30;;
71856;SDS011;63344;46.980;28.882;2023-04-25T10:44:29;6.22;;;2.42;;
71856;SDS011;63344;46.980;28.882;2023-04-25T10:47:01;5.45;;;2.20;;
71856;SDS011;63344;46.980;28.882;2023-04-25T10:49:30;3.17;;;2.35;;
71856;SDS011;63344;46.980;28.882;2023-04-25T10:52:18;9.70;;;3.55;;
71856;SDS011;63344;46.980;28.882;2023-04-25T10:54:52;4.75;;;2.55;;
71856;SDS011;63344;46.980;28.882;2023-04-25T10:57:27;5.05;;;2.45;;
71856;SDS011;63344;46.980;28.882;2023-04-25T11:00:00;7.90;;;2.75;;
71856;SDS011;63344;46.980;28.882;2023-04-25T11:02:36;6.20;;;2.97;;
71856;SDS011;63344;46.980;28.882;2023-04-25T11:05:04;5.90;;;3.70;;
71856;SDS011;63344;46.980;28.882;2023-04-25T11:10:05;8.45;;;3.85;;
71856;SDS011;63344;46.980;28.882;2023-04-25T11:12:33;6.63;;;3.70;;
71856;SDS011;63344;46.980;28.882;2023-04-25T11:15:02;8.35;;;3.97;;
71856;SDS011;63344;46.980;28.882;2023-04-25T11:17:31;7.82;;;4.45;;
71856;SDS011;63344;46.980;28.882;2023-04-25T11:20:00;8.52;;;4.63;;
71856;SDS011;63344;46.980;28.882;2023-04-25T11:22:28;11.27;;;4.32;;
71856;SDS011;63344;46.980;28.882;2023-04-25T11:24:56;8.10;;;4.20;;
71856;SDS011;63344;46.980;28.882;2023-04-25T11:27:24;7.88;;;4.40;;
71856;SDS011;63344;46.980;28.882;2023-04-25T11:29:52;9.07;;;4.07;;
71856;SDS011;63344;46.980;28.882;2023-04-25T11:32:39;7.20;;;4.70;;
71856;SDS011;63344;46.980;28.882;2023-04-25T11:37:35;10.77;;;4.07;;
71856;SDS011;63344;46.980;28.882;2023-04-25T11:40:03;10.88;;;5.10;;
71856;SDS011;63344;46.980;28.882;2023-04-25T11:42:33;6.82;;;4.43;;
71856;SDS011;63344;46.980;28.882;2023-04-25T11:45:00;8.23;;;4.97;;
71856;SDS011;63344;46.980;28.882;2023-04-25T11:47:31;8.95;;;4.40;;
71856;SDS011;63344;46.980;28.882;2023-04-25T11:50:00;8.63;;;4.80;;
71856;SDS011;63344;46.980;28.882;2023-04-25T11:52:38;9.38;;;5.75;;
71856;SDS011;63344;46.980;28.882;2023-04-25T11:55:09;9.82;;;5.03;;
71856;SDS011;63344;46.980;28.882;2023-04-25T11:57:51;15.05;;;5.78;;
71856;SDS011;63344;46.980;28.882;2023-04-25T12:00:19;9.27;;;5.28;;
71856;SDS011;63344;46.980;28.882;2023-04-25T12:03:05;9.80;;;5.50;;
71856;SDS011;63344;46.980;28.882;2023-04-25T12:05:36;13.98;;;5.85;;
71856;SDS011;63344;46.980;28.882;2023-04-25T12:10:40;12.88;;;6.40;;
71856;SDS011;63344;46.980;28.882;2023-04-25T12:13:22;17.02;;;7.32;;
71856;SDS011;63344;46.980;28.882;2023-04-25T12:15:51;8.30;;;4.32;;
71856;SDS011;63344;46.980;28.882;2023-04-25T12:21:34;11.80;;;6.18;;
71856;SDS011;63344;46.980;28.882;2023-04-25T12:24:24;7.47;;;4.40;;
71856;SDS011;63344;46.980;28.882;2023-04-25T12:26:58;15.68;;;5.10;;
71856;SDS011;63344;46.980;28.882;2023-04-25T12:29:28;9.55;;;5.72;;
71856;SDS011;63344;46.980;28.882;2023-04-25T12:32:13;8.25;;;4.50;;
71856;SDS011;63344;46.980;28.882;2023-04-25T12:34:41;10.32;;;6.55;;
71856;SDS011;63344;46.980;28.882;2023-04-25T12:37:12;7.05;;;4.85;;
71856;SDS011;63344;46.980;28.882;2023-04-25T12:39:40;13.65;;;4.95;;
71856;SDS011;63344;46.980;28.882;2023-04-25T12:42:07;15.23;;;6.82;;
71856;SDS011;63344;46.980;28.882;2023-04-25T12:44:56;9.88;;;4.75;;
71856;SDS011;63344;46.980;28.882;2023-04-25T12:47:38;10.13;;;5.75;;
71856;SDS011;63344;46.980;28.882;2023-04-25T12:50:34;9.88;;;6.32;;
71856;SDS011;63344;46.980;28.882;2023-04-25T12:53:25;11.10;;;5.38;;
71856;SDS011;63344;46.980;28.882;2023-04-25T12:55:52;9.05;;;4.78;;
71856;SDS011;63344;46.980;28.882;2023-04-25T12:58:24;14.30;;;5.93;;
71856;SDS011;63344;46.980;28.882;2023-04-25T13:00:52;12.02;;;6.25;;
71856;SDS011;63344;46.980;28.882;2023-04-25T13:03:20;12.07;;;6.18;;
71856;SDS011;63344;46.980;28.882;2023-04-25T13:05:47;12.13;;;6.53;;
71856;SDS011;63344;46.980;28.882;2023-04-25T13:08:14;12.60;;;7.05;;
71856;SDS011;63344;46.980;28.882;2023-04-25T13:10:42;13.95;;;7.53;;
71856;SDS011;63344;46.980;28.882;2023-04-25T13:13:09;11.32;;;6.28;;
71856;SDS011;63344;46.980;28.882;2023-04-25T13:15:36;12.30;;;7.65;;
71856;SDS011;63344;46.980;28.882;2023-04-25T13:18:04;17.00;;;8.35;;
71856;SDS011;63344;46.980;28.882;2023-04-25T13:20:32;13.32;;;6.82;;
71856;SDS011;63344;46.980;28.882;2023-04-25T13:23:00;13.00;;;8.43;;
71856;SDS011;63344;46.980;28.882;2023-04-25T13:25:28;10.45;;;5.82;;
71856;SDS011;63344;46.980;28.882;2023-04-25T13:27:56;8.75;;;4.68;;
71856;SDS011;63344;46.980;28.882;2023-04-25T13:30:23;8.75;;;5.07;;
71856;SDS011;63344;46.980;28.882;2023-04-25T13:32:50;9.45;;;5.50;;
71856;SDS011;63344;46.980;28.882;2023-04-25T13:35:27;12.15;;;6.32;;
71856;SDS011;63344;46.980;28.882;2023-04-25T13:37:54;12.65;;;7.28;;
71856;SDS011;63344;46.980;28.882;2023-04-25T13:40:21;13.05;;;6.95;;
71856;SDS011;63344;46.980;28.882;2023-04-25T13:42:54;6.45;;;3.97;;
71856;SDS011;63344;46.980;28.882;2023-04-25T13:45:21;9.73;;;5.28;;
71856;SDS011;63344;46.980;28.882;2023-04-25T13:47:51;11.55;;;5.55;;
71856;SDS011;63344;46.980;28.882;2023-04-25T13:50:18;9.35;;;5.57;;
71856;SDS011;63344;46.980;28.882;2023-04-25T13:52:47;9.13;;;5.40;;
71856;SDS011;63344;46.980;28.882;2023-04-25T13:55:14;16.20;;;7.05;;
71856;SDS011;63344;46.980;28.882;2023-04-25T13:57:41;11.40;;;5.13;;
71856;SDS011;63344;46.980;28.882;2023-04-25T14:00:10;12.68;;;5.63;;
71856;SDS011;63344;46.980;28.882;2023-04-25T14:02:40;9.80;;;6.03;;
71856;SDS011;63344;46.980;28.882;2023-04-25T14:05:08;11.23;;;5.80;;
71856;SDS011;63344;46.980;28.882;2023-04-25T14:07:36;13.02;;;5.80;;
71856;SDS011;63344;46.980;28.882;2023-04-25T14:13:27;7.88;;;5.03;;
71856;SDS011;63344;46.980;28.882;2023-04-25T14:15:54;7.50;;;4.63;;
71856;SDS011;63344;46.980;28.882;2023-04-25T14:18:29;15.43;;;7.57;;
71856;SDS011;63344;46.980;28.882;2023-04-25T14:20:56;8.75;;;5.78;;
71856;SDS011;63344;46.980;28.882;2023-04-25T14:23:24;7.53;;;4.22;;
71856;SDS011;63344;46.980;28.882;2023-04-25T14:25:55;6.43;;;4.28;;
71856;SDS011;63344;46.980;28.882;2023-04-25T14:28:23;9.90;;;3.38;;
71856;SDS011;63344;46.980;28.882;2023-04-25T14:30:50;6.80;;;4.20;;
71856;SDS011;63344;46.980;28.882;2023-04-25T14:33:18;12.40;;;4.30;;
71856;SDS011;63344;46.980;28.882;2023-04-25T14:35:54;6.07;;;3.60;;
71856;SDS011;63344;46.980;28.882;2023-04-25T14:38:25;7.57;;;4.28;;
71856;SDS011;63344;46.980;28.882;2023-04-25T14:43:38;5.78;;;3.85;;
71856;SDS011;63344;46.980;28.882;2023-04-25T14:46:08;8.05;;;4.22;;
71856;SDS011;63344;46.980;28.882;2023-04-25T14:48:43;9.88;;;5.35;;
71856;SDS011;63344;46.980;28.882;2023-04-25T14:51:11;6.10;;;3.00;;
71856;SDS011;63344;46.980;28.882;2023-04-25T14:53:39;6.72;;;3.72;;
71856;SDS011;63344;46.980;28.882;2023-04-25T14:56:22;5.63;;;3.08;;
71856;SDS011;63344;46.980;28.882;2023-04-25T14:58:52;4.03;;;2.33;;
71856;SDS011;63344;46.980;28.882;2023-04-25T15:01:19;5.85;;;3.50;;
71856;SDS011;63344;46.980;28.882;2023-04-25T15:03:48;5.97;;;2.70;;
71856;SDS011;63344;46.980;28.882;2023-04-25T15:06:15;7.45;;;3.67;;
71856;SDS011;63344;46.980;28.882;2023-04-25T15:08:43;5.93;;;3.33;;
71856;SDS011;63344;46.980;28.882;2023-04-25T15:11:10;3.65;;;2.40;;
71856;SDS011;63344;46.980;28.882;2023-04-25T15:13:38;8.82;;;3.58;;
71856;SDS011;63344;46.980;28.882;2023-04-25T15:16:05;4.20;;;2.40;;
71856;SDS011;63344;46.980;28.882;2023-04-25T15:18:35;4.35;;;2.53;;
71856;SDS011;63344;46.980;28.882;2023-04-25T15:21:02;6.38;;;3.33;;
71856;SDS011;63344;46.980;28.882;2023-04-25T15:23:30;5.40;;;3.38;;